<?xml version="1.0" encoding="UTF-8" standalone="no" ?>
<gpx xmlns="http://www.topografix.com/GPX/1/1" xmlns:xsi="http://www.w3.org/2001/XMLSchema-instance" xsi:schemaLocation="http://www.topografix.com/GPX/1/1 http://www.topografix.com/GPX/1/1/gpx.xsd" version="1.1" creator="VisuGPX - https://www.visugpx.com">
  <metadata>
    <name>Tour du lac de Villefort</name>
    <desc><![CDATA[Boucle autour du lac de Villefort
Globalement plat à part quelques petites bosses]]></desc>
  </metadata>
  <trk>
    <name><![CDATA[Tour du lac de Villefort_1]]></name>
    <trkseg>
      <trkpt lat="44.45481" lon="3.93214">
        <ele>626.44</ele>
        <time>2026-03-21T14:10:13Z</time>
      </trkpt>
      <trkpt lat="44.45478" lon="3.93217">
        <ele>628.36</ele>
        <time>2026-03-21T14:10:16Z</time>
      </trkpt>
      <trkpt lat="44.45466" lon="3.93218">
        <ele>620.19</ele>
        <time>2026-03-21T14:10:26Z</time>
      </trkpt>
      <trkpt lat="44.45465" lon="3.93218">
        <ele>627.88</ele>
        <time>2026-03-21T14:10:27Z</time>
      </trkpt>
      <trkpt lat="44.45464" lon="3.93217">
        <ele>623.55</ele>
        <time>2026-03-21T14:10:29Z</time>
      </trkpt>
      <trkpt lat="44.45463" lon="3.93217">
        <ele>623.55</ele>
        <time>2026-03-21T14:10:30Z</time>
      </trkpt>
      <trkpt lat="44.45466" lon="3.93217">
        <ele>620.19</ele>
        <time>2026-03-21T14:10:46Z</time>
      </trkpt>
      <trkpt lat="44.45462" lon="3.93214">
        <ele>618.75</ele>
        <time>2026-03-21T14:11:00Z</time>
      </trkpt>
      <trkpt lat="44.4544" lon="3.93194">
        <ele>617.3</ele>
        <time>2026-03-21T14:11:21Z</time>
      </trkpt>
      <trkpt lat="44.45438" lon="3.93192">
        <ele>616.34</ele>
        <time>2026-03-21T14:11:23Z</time>
      </trkpt>
      <trkpt lat="44.45413" lon="3.93178">
        <ele>614.9</ele>
        <time>2026-03-21T14:11:45Z</time>
      </trkpt>
      <trkpt lat="44.45389" lon="3.93176">
        <ele>613.94</ele>
        <time>2026-03-21T14:12:03Z</time>
      </trkpt>
      <trkpt lat="44.45367" lon="3.93182">
        <ele>612.5</ele>
        <time>2026-03-21T14:12:21Z</time>
      </trkpt>
      <trkpt lat="44.45349" lon="3.93184">
        <ele>612.02</ele>
        <time>2026-03-21T14:12:36Z</time>
      </trkpt>
      <trkpt lat="44.45324" lon="3.93174">
        <ele>611.54</ele>
        <time>2026-03-21T14:12:57Z</time>
      </trkpt>
      <trkpt lat="44.4532" lon="3.93172">
        <ele>611.54</ele>
        <time>2026-03-21T14:13:02Z</time>
      </trkpt>
      <trkpt lat="44.45318" lon="3.93163">
        <ele>611.54</ele>
        <time>2026-03-21T14:13:08Z</time>
      </trkpt>
      <trkpt lat="44.453" lon="3.93161">
        <ele>611.54</ele>
        <time>2026-03-21T14:13:25Z</time>
      </trkpt>
      <trkpt lat="44.4528" lon="3.93165">
        <ele>611.06</ele>
        <time>2026-03-21T14:13:42Z</time>
      </trkpt>
      <trkpt lat="44.45261" lon="3.93175">
        <ele>611.54</ele>
        <time>2026-03-21T14:13:59Z</time>
      </trkpt>
      <trkpt lat="44.45246" lon="3.93187">
        <ele>611.54</ele>
        <time>2026-03-21T14:14:16Z</time>
      </trkpt>
      <trkpt lat="44.4523" lon="3.93203">
        <ele>611.06</ele>
        <time>2026-03-21T14:14:32Z</time>
      </trkpt>
      <trkpt lat="44.45226" lon="3.93205">
        <ele>611.06</ele>
        <time>2026-03-21T14:14:35Z</time>
      </trkpt>
      <trkpt lat="44.45218" lon="3.93209">
        <ele>611.06</ele>
        <time>2026-03-21T14:14:43Z</time>
      </trkpt>
      <trkpt lat="44.45215" lon="3.93213">
        <ele>611.06</ele>
        <time>2026-03-21T14:14:46Z</time>
      </trkpt>
      <trkpt lat="44.45195" lon="3.93215">
        <ele>610.57</ele>
        <time>2026-03-21T14:15:02Z</time>
      </trkpt>
      <trkpt lat="44.45169" lon="3.93219">
        <ele>610.09</ele>
        <time>2026-03-21T14:15:21Z</time>
      </trkpt>
      <trkpt lat="44.4515" lon="3.93218">
        <ele>610.09</ele>
        <time>2026-03-21T14:15:37Z</time>
      </trkpt>
      <trkpt lat="44.45132" lon="3.93213">
        <ele>610.09</ele>
        <time>2026-03-21T14:15:51Z</time>
      </trkpt>
      <trkpt lat="44.4511" lon="3.93201">
        <ele>610.57</ele>
        <time>2026-03-21T14:16:07Z</time>
      </trkpt>
      <trkpt lat="44.4509" lon="3.93184">
        <ele>610.57</ele>
        <time>2026-03-21T14:16:25Z</time>
      </trkpt>
      <trkpt lat="44.45071" lon="3.93168">
        <ele>610.57</ele>
        <time>2026-03-21T14:16:44Z</time>
      </trkpt>
      <trkpt lat="44.45051" lon="3.93153">
        <ele>610.57</ele>
        <time>2026-03-21T14:17:03Z</time>
      </trkpt>
      <trkpt lat="44.45034" lon="3.9314">
        <ele>610.57</ele>
        <time>2026-03-21T14:17:20Z</time>
      </trkpt>
      <trkpt lat="44.45015" lon="3.93125">
        <ele>611.54</ele>
        <time>2026-03-21T14:17:38Z</time>
      </trkpt>
      <trkpt lat="44.44993" lon="3.93108">
        <ele>611.54</ele>
        <time>2026-03-21T14:17:59Z</time>
      </trkpt>
      <trkpt lat="44.44976" lon="3.93094">
        <ele>611.54</ele>
        <time>2026-03-21T14:18:18Z</time>
      </trkpt>
      <trkpt lat="44.44956" lon="3.93075">
        <ele>611.54</ele>
        <time>2026-03-21T14:18:39Z</time>
      </trkpt>
      <trkpt lat="44.44935" lon="3.93063">
        <ele>611.54</ele>
        <time>2026-03-21T14:18:58Z</time>
      </trkpt>
      <trkpt lat="44.44922" lon="3.93055">
        <ele>611.54</ele>
        <time>2026-03-21T14:19:10Z</time>
      </trkpt>
      <trkpt lat="44.44918" lon="3.93054">
        <ele>611.54</ele>
        <time>2026-03-21T14:19:14Z</time>
      </trkpt>
      <trkpt lat="44.44915" lon="3.93051">
        <ele>610.57</ele>
        <time>2026-03-21T14:19:17Z</time>
      </trkpt>
      <trkpt lat="44.44906" lon="3.93043">
        <ele>609.13</ele>
        <time>2026-03-21T14:19:31Z</time>
      </trkpt>
      <trkpt lat="44.44906" lon="3.93039">
        <ele>609.13</ele>
        <time>2026-03-21T14:19:45Z</time>
      </trkpt>
      <trkpt lat="44.44906" lon="3.93039">
        <ele>608.17</ele>
        <time>2026-03-21T14:19:50Z</time>
      </trkpt>
      <trkpt lat="44.44906" lon="3.93039">
        <ele>611.54</ele>
        <time>2026-03-21T14:19:51Z</time>
      </trkpt>
      <trkpt lat="44.44906" lon="3.93039">
        <ele>610.09</ele>
        <time>2026-03-21T14:19:52Z</time>
      </trkpt>
      <trkpt lat="44.44899" lon="3.9303">
        <ele>607.69</ele>
        <time>2026-03-21T14:20:05Z</time>
      </trkpt>
      <trkpt lat="44.44899" lon="3.93001">
        <ele>609.13</ele>
        <time>2026-03-21T14:20:23Z</time>
      </trkpt>
      <trkpt lat="44.44896" lon="3.92974">
        <ele>610.09</ele>
        <time>2026-03-21T14:20:41Z</time>
      </trkpt>
      <trkpt lat="44.4489" lon="3.92945">
        <ele>610.09</ele>
        <time>2026-03-21T14:21:00Z</time>
      </trkpt>
      <trkpt lat="44.44885" lon="3.92926">
        <ele>610.09</ele>
        <time>2026-03-21T14:21:14Z</time>
      </trkpt>
      <trkpt lat="44.44889" lon="3.9291">
        <ele>608.65</ele>
        <time>2026-03-21T14:21:24Z</time>
      </trkpt>
      <trkpt lat="44.44891" lon="3.92907">
        <ele>610.09</ele>
        <time>2026-03-21T14:21:26Z</time>
      </trkpt>
      <trkpt lat="44.44909" lon="3.92888">
        <ele>610.57</ele>
        <time>2026-03-21T14:21:45Z</time>
      </trkpt>
      <trkpt lat="44.44916" lon="3.92864">
        <ele>611.06</ele>
        <time>2026-03-21T14:22:01Z</time>
      </trkpt>
      <trkpt lat="44.44916" lon="3.92834">
        <ele>612.02</ele>
        <time>2026-03-21T14:22:20Z</time>
      </trkpt>
      <trkpt lat="44.44917" lon="3.92819">
        <ele>610.57</ele>
        <time>2026-03-21T14:22:30Z</time>
      </trkpt>
      <trkpt lat="44.44923" lon="3.92795">
        <ele>608.17</ele>
        <time>2026-03-21T14:22:47Z</time>
      </trkpt>
      <trkpt lat="44.44924" lon="3.92791">
        <ele>609.61</ele>
        <time>2026-03-21T14:22:51Z</time>
      </trkpt>
      <trkpt lat="44.44925" lon="3.92789">
        <ele>610.09</ele>
        <time>2026-03-21T14:22:53Z</time>
      </trkpt>
      <trkpt lat="44.44931" lon="3.92784">
        <ele>611.54</ele>
        <time>2026-03-21T14:22:58Z</time>
      </trkpt>
      <trkpt lat="44.4494" lon="3.92771">
        <ele>613.94</ele>
        <time>2026-03-21T14:23:11Z</time>
      </trkpt>
      <trkpt lat="44.44942" lon="3.92768">
        <ele>614.42</ele>
        <time>2026-03-21T14:23:14Z</time>
      </trkpt>
      <trkpt lat="44.44951" lon="3.9274">
        <ele>615.38</ele>
        <time>2026-03-21T14:23:34Z</time>
      </trkpt>
      <trkpt lat="44.4496" lon="3.92717">
        <ele>615.38</ele>
        <time>2026-03-21T14:23:48Z</time>
      </trkpt>
      <trkpt lat="44.44964" lon="3.92707">
        <ele>615.38</ele>
        <time>2026-03-21T14:23:54Z</time>
      </trkpt>
      <trkpt lat="44.44975" lon="3.92678">
        <ele>615.38</ele>
        <time>2026-03-21T14:24:14Z</time>
      </trkpt>
      <trkpt lat="44.44986" lon="3.92646">
        <ele>615.86</ele>
        <time>2026-03-21T14:24:36Z</time>
      </trkpt>
      <trkpt lat="44.44992" lon="3.92621">
        <ele>618.26</ele>
        <time>2026-03-21T14:24:55Z</time>
      </trkpt>
      <trkpt lat="44.44998" lon="3.92596">
        <ele>618.75</ele>
        <time>2026-03-21T14:25:12Z</time>
      </trkpt>
      <trkpt lat="44.45004" lon="3.92585">
        <ele>618.75</ele>
        <time>2026-03-21T14:25:21Z</time>
      </trkpt>
      <trkpt lat="44.4501" lon="3.92556">
        <ele>617.78</ele>
        <time>2026-03-21T14:25:38Z</time>
      </trkpt>
      <trkpt lat="44.45017" lon="3.92523">
        <ele>617.3</ele>
        <time>2026-03-21T14:25:59Z</time>
      </trkpt>
      <trkpt lat="44.45024" lon="3.92491">
        <ele>617.3</ele>
        <time>2026-03-21T14:26:19Z</time>
      </trkpt>
      <trkpt lat="44.45024" lon="3.92454">
        <ele>616.82</ele>
        <time>2026-03-21T14:26:40Z</time>
      </trkpt>
      <trkpt lat="44.45021" lon="3.92418">
        <ele>615.86</ele>
        <time>2026-03-21T14:27:03Z</time>
      </trkpt>
      <trkpt lat="44.45017" lon="3.92402">
        <ele>615.86</ele>
        <time>2026-03-21T14:27:14Z</time>
      </trkpt>
      <trkpt lat="44.45014" lon="3.92364">
        <ele>615.38</ele>
        <time>2026-03-21T14:27:36Z</time>
      </trkpt>
      <trkpt lat="44.45012" lon="3.92332">
        <ele>615.38</ele>
        <time>2026-03-21T14:27:55Z</time>
      </trkpt>
      <trkpt lat="44.4501" lon="3.92297">
        <ele>615.38</ele>
        <time>2026-03-21T14:28:16Z</time>
      </trkpt>
      <trkpt lat="44.45007" lon="3.92263">
        <ele>615.38</ele>
        <time>2026-03-21T14:28:36Z</time>
      </trkpt>
      <trkpt lat="44.45006" lon="3.92244">
        <ele>615.38</ele>
        <time>2026-03-21T14:28:50Z</time>
      </trkpt>
      <trkpt lat="44.45003" lon="3.92213">
        <ele>615.38</ele>
        <time>2026-03-21T14:29:11Z</time>
      </trkpt>
      <trkpt lat="44.45" lon="3.92182">
        <ele>616.34</ele>
        <time>2026-03-21T14:29:31Z</time>
      </trkpt>
      <trkpt lat="44.44997" lon="3.92153">
        <ele>616.34</ele>
        <time>2026-03-21T14:29:48Z</time>
      </trkpt>
      <trkpt lat="44.44993" lon="3.92118">
        <ele>616.34</ele>
        <time>2026-03-21T14:30:09Z</time>
      </trkpt>
      <trkpt lat="44.44992" lon="3.92096">
        <ele>615.38</ele>
        <time>2026-03-21T14:30:22Z</time>
      </trkpt>
      <trkpt lat="44.4499" lon="3.92077">
        <ele>615.38</ele>
        <time>2026-03-21T14:30:34Z</time>
      </trkpt>
      <trkpt lat="44.44998" lon="3.92077">
        <ele>615.38</ele>
        <time>2026-03-21T14:30:45Z</time>
      </trkpt>
      <trkpt lat="44.45005" lon="3.92075">
        <ele>616.82</ele>
        <time>2026-03-21T14:30:51Z</time>
      </trkpt>
      <trkpt lat="44.45017" lon="3.92066">
        <ele>619.23</ele>
        <time>2026-03-21T14:31:08Z</time>
      </trkpt>
      <trkpt lat="44.45028" lon="3.9206">
        <ele>621.63</ele>
        <time>2026-03-21T14:31:24Z</time>
      </trkpt>
      <trkpt lat="44.45034" lon="3.92068">
        <ele>621.15</ele>
        <time>2026-03-21T14:31:32Z</time>
      </trkpt>
      <trkpt lat="44.45036" lon="3.9207">
        <ele>620.19</ele>
        <time>2026-03-21T14:31:34Z</time>
      </trkpt>
      <trkpt lat="44.45041" lon="3.92074">
        <ele>620.19</ele>
        <time>2026-03-21T14:31:39Z</time>
      </trkpt>
      <trkpt lat="44.45056" lon="3.92078">
        <ele>620.19</ele>
        <time>2026-03-21T14:31:54Z</time>
      </trkpt>
      <trkpt lat="44.45077" lon="3.92084">
        <ele>620.19</ele>
        <time>2026-03-21T14:32:12Z</time>
      </trkpt>
      <trkpt lat="44.45082" lon="3.92086">
        <ele>618.75</ele>
        <time>2026-03-21T14:32:18Z</time>
      </trkpt>
      <trkpt lat="44.45097" lon="3.9209">
        <ele>617.3</ele>
        <time>2026-03-21T14:32:34Z</time>
      </trkpt>
      <trkpt lat="44.45115" lon="3.92089">
        <ele>617.78</ele>
        <time>2026-03-21T14:32:51Z</time>
      </trkpt>
      <trkpt lat="44.45134" lon="3.92097">
        <ele>619.23</ele>
        <time>2026-03-21T14:33:08Z</time>
      </trkpt>
      <trkpt lat="44.45149" lon="3.92102">
        <ele>621.15</ele>
        <time>2026-03-21T14:33:24Z</time>
      </trkpt>
      <trkpt lat="44.45162" lon="3.9211">
        <ele>623.55</ele>
        <time>2026-03-21T14:33:38Z</time>
      </trkpt>
      <trkpt lat="44.45176" lon="3.92115">
        <ele>625.96</ele>
        <time>2026-03-21T14:33:55Z</time>
      </trkpt>
      <trkpt lat="44.4519" lon="3.92122">
        <ele>626.44</ele>
        <time>2026-03-21T14:34:10Z</time>
      </trkpt>
      <trkpt lat="44.45205" lon="3.92137">
        <ele>624.99</ele>
        <time>2026-03-21T14:34:25Z</time>
      </trkpt>
      <trkpt lat="44.45216" lon="3.92152">
        <ele>625.47</ele>
        <time>2026-03-21T14:34:41Z</time>
      </trkpt>
      <trkpt lat="44.45225" lon="3.92164">
        <ele>626.44</ele>
        <time>2026-03-21T14:34:54Z</time>
      </trkpt>
      <trkpt lat="44.45233" lon="3.92183">
        <ele>628.84</ele>
        <time>2026-03-21T14:35:08Z</time>
      </trkpt>
      <trkpt lat="44.4523" lon="3.92191">
        <ele>628.84</ele>
        <time>2026-03-21T14:35:15Z</time>
      </trkpt>
      <trkpt lat="44.45226" lon="3.92201">
        <ele>627.4</ele>
        <time>2026-03-21T14:35:24Z</time>
      </trkpt>
      <trkpt lat="44.45219" lon="3.92218">
        <ele>629.8</ele>
        <time>2026-03-21T14:35:42Z</time>
      </trkpt>
      <trkpt lat="44.4522" lon="3.92218">
        <ele>629.8</ele>
        <time>2026-03-21T14:35:43Z</time>
      </trkpt>
      <trkpt lat="44.45229" lon="3.92234">
        <ele>626.44</ele>
        <time>2026-03-21T14:35:59Z</time>
      </trkpt>
      <trkpt lat="44.45232" lon="3.92252">
        <ele>624.99</ele>
        <time>2026-03-21T14:36:14Z</time>
      </trkpt>
      <trkpt lat="44.4524" lon="3.92263">
        <ele>624.03</ele>
        <time>2026-03-21T14:36:28Z</time>
      </trkpt>
      <trkpt lat="44.45245" lon="3.92278">
        <ele>623.07</ele>
        <time>2026-03-21T14:36:41Z</time>
      </trkpt>
      <trkpt lat="44.45246" lon="3.92289">
        <ele>622.11</ele>
        <time>2026-03-21T14:36:50Z</time>
      </trkpt>
      <trkpt lat="44.45255" lon="3.92303">
        <ele>623.07</ele>
        <time>2026-03-21T14:37:04Z</time>
      </trkpt>
      <trkpt lat="44.45258" lon="3.9231">
        <ele>623.07</ele>
        <time>2026-03-21T14:37:12Z</time>
      </trkpt>
      <trkpt lat="44.45261" lon="3.92317">
        <ele>622.11</ele>
        <time>2026-03-21T14:37:17Z</time>
      </trkpt>
      <trkpt lat="44.45265" lon="3.92324">
        <ele>620.19</ele>
        <time>2026-03-21T14:37:28Z</time>
      </trkpt>
      <trkpt lat="44.45271" lon="3.92332">
        <ele>617.78</ele>
        <time>2026-03-21T14:37:40Z</time>
      </trkpt>
      <trkpt lat="44.45275" lon="3.92337">
        <ele>616.34</ele>
        <time>2026-03-21T14:37:53Z</time>
      </trkpt>
      <trkpt lat="44.45277" lon="3.92345">
        <ele>614.42</ele>
        <time>2026-03-21T14:38:05Z</time>
      </trkpt>
      <trkpt lat="44.45286" lon="3.92357">
        <ele>612.98</ele>
        <time>2026-03-21T14:38:20Z</time>
      </trkpt>
      <trkpt lat="44.45293" lon="3.92369">
        <ele>612.5</ele>
        <time>2026-03-21T14:38:34Z</time>
      </trkpt>
      <trkpt lat="44.45302" lon="3.92383">
        <ele>613.94</ele>
        <time>2026-03-21T14:38:46Z</time>
      </trkpt>
      <trkpt lat="44.4531" lon="3.92401">
        <ele>615.38</ele>
        <time>2026-03-21T14:39:00Z</time>
      </trkpt>
      <trkpt lat="44.45315" lon="3.9242">
        <ele>615.38</ele>
        <time>2026-03-21T14:39:14Z</time>
      </trkpt>
      <trkpt lat="44.45318" lon="3.92438">
        <ele>616.34</ele>
        <time>2026-03-21T14:39:29Z</time>
      </trkpt>
      <trkpt lat="44.45324" lon="3.9245">
        <ele>619.23</ele>
        <time>2026-03-21T14:39:45Z</time>
      </trkpt>
      <trkpt lat="44.4533" lon="3.9246">
        <ele>620.67</ele>
        <time>2026-03-21T14:39:58Z</time>
      </trkpt>
      <trkpt lat="44.45336" lon="3.9247">
        <ele>619.23</ele>
        <time>2026-03-21T14:40:08Z</time>
      </trkpt>
      <trkpt lat="44.45345" lon="3.92477">
        <ele>618.75</ele>
        <time>2026-03-21T14:40:22Z</time>
      </trkpt>
      <trkpt lat="44.45354" lon="3.92486">
        <ele>617.78</ele>
        <time>2026-03-21T14:40:34Z</time>
      </trkpt>
      <trkpt lat="44.45368" lon="3.92499">
        <ele>615.38</ele>
        <time>2026-03-21T14:40:48Z</time>
      </trkpt>
      <trkpt lat="44.4537" lon="3.92503">
        <ele>614.9</ele>
        <time>2026-03-21T14:41:13Z</time>
      </trkpt>
      <trkpt lat="44.45374" lon="3.92505">
        <ele>613.94</ele>
        <time>2026-03-21T14:41:21Z</time>
      </trkpt>
      <trkpt lat="44.45377" lon="3.92508">
        <ele>613.94</ele>
        <time>2026-03-21T14:41:23Z</time>
      </trkpt>
      <trkpt lat="44.45396" lon="3.9253">
        <ele>611.54</ele>
        <time>2026-03-21T14:41:47Z</time>
      </trkpt>
      <trkpt lat="44.45401" lon="3.92541">
        <ele>613.46</ele>
        <time>2026-03-21T14:41:53Z</time>
      </trkpt>
      <trkpt lat="44.45403" lon="3.92544">
        <ele>612.02</ele>
        <time>2026-03-21T14:41:55Z</time>
      </trkpt>
      <trkpt lat="44.45414" lon="3.92547">
        <ele>613.46</ele>
        <time>2026-03-21T14:42:06Z</time>
      </trkpt>
      <trkpt lat="44.45435" lon="3.92552">
        <ele>612.02</ele>
        <time>2026-03-21T14:42:27Z</time>
      </trkpt>
      <trkpt lat="44.45454" lon="3.92553">
        <ele>611.54</ele>
        <time>2026-03-21T14:42:44Z</time>
      </trkpt>
      <trkpt lat="44.45475" lon="3.9254">
        <ele>611.06</ele>
        <time>2026-03-21T14:43:06Z</time>
      </trkpt>
      <trkpt lat="44.45478" lon="3.92539">
        <ele>610.09</ele>
        <time>2026-03-21T14:43:08Z</time>
      </trkpt>
      <trkpt lat="44.4549" lon="3.92535">
        <ele>613.46</ele>
        <time>2026-03-21T14:43:19Z</time>
      </trkpt>
      <trkpt lat="44.45503" lon="3.92516">
        <ele>616.82</ele>
        <time>2026-03-21T14:43:41Z</time>
      </trkpt>
      <trkpt lat="44.45516" lon="3.92502">
        <ele>619.71</ele>
        <time>2026-03-21T14:44:04Z</time>
      </trkpt>
      <trkpt lat="44.45522" lon="3.925">
        <ele>620.19</ele>
        <time>2026-03-21T14:44:12Z</time>
      </trkpt>
      <trkpt lat="44.45523" lon="3.92501">
        <ele>618.75</ele>
        <time>2026-03-21T14:44:15Z</time>
      </trkpt>
      <trkpt lat="44.45552" lon="3.92487">
        <ele>619.23</ele>
        <time>2026-03-21T14:44:32Z</time>
      </trkpt>
      <trkpt lat="44.45565" lon="3.92484">
        <ele>620.19</ele>
        <time>2026-03-21T14:44:46Z</time>
      </trkpt>
      <trkpt lat="44.4558" lon="3.92476">
        <ele>621.63</ele>
        <time>2026-03-21T14:45:01Z</time>
      </trkpt>
      <trkpt lat="44.45596" lon="3.92465">
        <ele>621.63</ele>
        <time>2026-03-21T14:45:19Z</time>
      </trkpt>
      <trkpt lat="44.45615" lon="3.92457">
        <ele>618.75</ele>
        <time>2026-03-21T14:45:32Z</time>
      </trkpt>
      <trkpt lat="44.45628" lon="3.9245">
        <ele>617.3</ele>
        <time>2026-03-21T14:45:42Z</time>
      </trkpt>
      <trkpt lat="44.45638" lon="3.9244">
        <ele>616.82</ele>
        <time>2026-03-21T14:45:56Z</time>
      </trkpt>
      <trkpt lat="44.45652" lon="3.92432">
        <ele>617.3</ele>
        <time>2026-03-21T14:46:09Z</time>
      </trkpt>
      <trkpt lat="44.45664" lon="3.92419">
        <ele>616.82</ele>
        <time>2026-03-21T14:46:23Z</time>
      </trkpt>
      <trkpt lat="44.45666" lon="3.92418">
        <ele>616.82</ele>
        <time>2026-03-21T14:46:24Z</time>
      </trkpt>
      <trkpt lat="44.45677" lon="3.92407">
        <ele>615.86</ele>
        <time>2026-03-21T14:46:37Z</time>
      </trkpt>
      <trkpt lat="44.45687" lon="3.92396">
        <ele>615.38</ele>
        <time>2026-03-21T14:46:49Z</time>
      </trkpt>
      <trkpt lat="44.45697" lon="3.92397">
        <ele>613.94</ele>
        <time>2026-03-21T14:47:05Z</time>
      </trkpt>
      <trkpt lat="44.45704" lon="3.92398">
        <ele>614.42</ele>
        <time>2026-03-21T14:47:25Z</time>
      </trkpt>
      <trkpt lat="44.45704" lon="3.92397">
        <ele>614.42</ele>
        <time>2026-03-21T14:47:26Z</time>
      </trkpt>
      <trkpt lat="44.45707" lon="3.92391">
        <ele>614.42</ele>
        <time>2026-03-21T14:47:33Z</time>
      </trkpt>
      <trkpt lat="44.45711" lon="3.92376">
        <ele>614.42</ele>
        <time>2026-03-21T14:47:40Z</time>
      </trkpt>
      <trkpt lat="44.45711" lon="3.92371">
        <ele>614.42</ele>
        <time>2026-03-21T14:47:42Z</time>
      </trkpt>
      <trkpt lat="44.45712" lon="3.92349">
        <ele>614.42</ele>
        <time>2026-03-21T14:47:57Z</time>
      </trkpt>
      <trkpt lat="44.45717" lon="3.92324">
        <ele>614.9</ele>
        <time>2026-03-21T14:48:11Z</time>
      </trkpt>
      <trkpt lat="44.4572" lon="3.92308">
        <ele>614.9</ele>
        <time>2026-03-21T14:48:25Z</time>
      </trkpt>
      <trkpt lat="44.45729" lon="3.92292">
        <ele>612.98</ele>
        <time>2026-03-21T14:48:39Z</time>
      </trkpt>
      <trkpt lat="44.4574" lon="3.92289">
        <ele>612.5</ele>
        <time>2026-03-21T14:48:50Z</time>
      </trkpt>
      <trkpt lat="44.45756" lon="3.92299">
        <ele>612.02</ele>
        <time>2026-03-21T14:49:05Z</time>
      </trkpt>
      <trkpt lat="44.45766" lon="3.92308">
        <ele>611.54</ele>
        <time>2026-03-21T14:49:17Z</time>
      </trkpt>
      <trkpt lat="44.45772" lon="3.92313">
        <ele>612.5</ele>
        <time>2026-03-21T14:49:31Z</time>
      </trkpt>
      <trkpt lat="44.45776" lon="3.92319">
        <ele>612.5</ele>
        <time>2026-03-21T14:49:38Z</time>
      </trkpt>
      <trkpt lat="44.45791" lon="3.92336">
        <ele>612.5</ele>
        <time>2026-03-21T14:49:58Z</time>
      </trkpt>
      <trkpt lat="44.45794" lon="3.92343">
        <ele>612.5</ele>
        <time>2026-03-21T14:50:03Z</time>
      </trkpt>
      <trkpt lat="44.45809" lon="3.92369">
        <ele>612.98</ele>
        <time>2026-03-21T14:50:27Z</time>
      </trkpt>
      <trkpt lat="44.4581" lon="3.9237">
        <ele>612.98</ele>
        <time>2026-03-21T14:50:28Z</time>
      </trkpt>
      <trkpt lat="44.45825" lon="3.92357">
        <ele>614.9</ele>
        <time>2026-03-21T14:50:42Z</time>
      </trkpt>
      <trkpt lat="44.45831" lon="3.92345">
        <ele>612.98</ele>
        <time>2026-03-21T14:50:59Z</time>
      </trkpt>
      <trkpt lat="44.45838" lon="3.9233">
        <ele>612.98</ele>
        <time>2026-03-21T14:51:12Z</time>
      </trkpt>
      <trkpt lat="44.45841" lon="3.92316">
        <ele>614.42</ele>
        <time>2026-03-21T14:51:21Z</time>
      </trkpt>
      <trkpt lat="44.45846" lon="3.92294">
        <ele>615.38</ele>
        <time>2026-03-21T14:51:38Z</time>
      </trkpt>
      <trkpt lat="44.45846" lon="3.9228">
        <ele>617.78</ele>
        <time>2026-03-21T14:51:53Z</time>
      </trkpt>
      <trkpt lat="44.45845" lon="3.92266">
        <ele>620.19</ele>
        <time>2026-03-21T14:52:09Z</time>
      </trkpt>
      <trkpt lat="44.4585" lon="3.92248">
        <ele>621.15</ele>
        <time>2026-03-21T14:52:24Z</time>
      </trkpt>
      <trkpt lat="44.45858" lon="3.92227">
        <ele>621.63</ele>
        <time>2026-03-21T14:52:40Z</time>
      </trkpt>
      <trkpt lat="44.45857" lon="3.92211">
        <ele>622.59</ele>
        <time>2026-03-21T14:52:56Z</time>
      </trkpt>
      <trkpt lat="44.45858" lon="3.92207">
        <ele>619.71</ele>
        <time>2026-03-21T14:53:10Z</time>
      </trkpt>
      <trkpt lat="44.45862" lon="3.92193">
        <ele>617.3</ele>
        <time>2026-03-21T14:53:25Z</time>
      </trkpt>
      <trkpt lat="44.45864" lon="3.92179">
        <ele>615.86</ele>
        <time>2026-03-21T14:53:38Z</time>
      </trkpt>
      <trkpt lat="44.45868" lon="3.92162">
        <ele>615.38</ele>
        <time>2026-03-21T14:53:51Z</time>
      </trkpt>
      <trkpt lat="44.4587" lon="3.92148">
        <ele>615.38</ele>
        <time>2026-03-21T14:54:03Z</time>
      </trkpt>
      <trkpt lat="44.45875" lon="3.92132">
        <ele>613.94</ele>
        <time>2026-03-21T14:54:18Z</time>
      </trkpt>
      <trkpt lat="44.45878" lon="3.92123">
        <ele>612.98</ele>
        <time>2026-03-21T14:54:26Z</time>
      </trkpt>
      <trkpt lat="44.45878" lon="3.9211">
        <ele>612.02</ele>
        <time>2026-03-21T14:54:39Z</time>
      </trkpt>
      <trkpt lat="44.45882" lon="3.92107">
        <ele>612.02</ele>
        <time>2026-03-21T14:55:00Z</time>
      </trkpt>
      <trkpt lat="44.45885" lon="3.92105">
        <ele>612.5</ele>
        <time>2026-03-21T14:55:19Z</time>
      </trkpt>
      <trkpt lat="44.45887" lon="3.92104">
        <ele>611.06</ele>
        <time>2026-03-21T14:55:25Z</time>
      </trkpt>
      <trkpt lat="44.45887" lon="3.92107">
        <ele>611.54</ele>
        <time>2026-03-21T14:55:41Z</time>
      </trkpt>
      <trkpt lat="44.4589" lon="3.92112">
        <ele>612.98</ele>
        <time>2026-03-21T14:55:47Z</time>
      </trkpt>
      <trkpt lat="44.45899" lon="3.92119">
        <ele>615.38</ele>
        <time>2026-03-21T14:55:59Z</time>
      </trkpt>
      <trkpt lat="44.4591" lon="3.92134">
        <ele>616.34</ele>
        <time>2026-03-21T14:56:14Z</time>
      </trkpt>
      <trkpt lat="44.45911" lon="3.92142">
        <ele>614.9</ele>
        <time>2026-03-21T14:56:21Z</time>
      </trkpt>
      <trkpt lat="44.45911" lon="3.92145">
        <ele>613.94</ele>
        <time>2026-03-21T14:56:23Z</time>
      </trkpt>
      <trkpt lat="44.45921" lon="3.92156">
        <ele>612.02</ele>
        <time>2026-03-21T14:56:40Z</time>
      </trkpt>
      <trkpt lat="44.45934" lon="3.92166">
        <ele>612.02</ele>
        <time>2026-03-21T14:56:57Z</time>
      </trkpt>
      <trkpt lat="44.45941" lon="3.9218">
        <ele>612.02</ele>
        <time>2026-03-21T14:57:09Z</time>
      </trkpt>
      <trkpt lat="44.4595" lon="3.922">
        <ele>614.42</ele>
        <time>2026-03-21T14:57:24Z</time>
      </trkpt>
      <trkpt lat="44.45954" lon="3.92211">
        <ele>614.42</ele>
        <time>2026-03-21T14:57:31Z</time>
      </trkpt>
      <trkpt lat="44.45968" lon="3.92225">
        <ele>614.9</ele>
        <time>2026-03-21T14:57:47Z</time>
      </trkpt>
      <trkpt lat="44.45975" lon="3.9224">
        <ele>617.78</ele>
        <time>2026-03-21T14:58:02Z</time>
      </trkpt>
      <trkpt lat="44.45974" lon="3.92254">
        <ele>619.23</ele>
        <time>2026-03-21T14:58:18Z</time>
      </trkpt>
      <trkpt lat="44.45975" lon="3.92257">
        <ele>617.78</ele>
        <time>2026-03-21T14:58:23Z</time>
      </trkpt>
      <trkpt lat="44.4597" lon="3.92269">
        <ele>616.34</ele>
        <time>2026-03-21T14:58:37Z</time>
      </trkpt>
      <trkpt lat="44.45966" lon="3.92276">
        <ele>614.42</ele>
        <time>2026-03-21T14:58:50Z</time>
      </trkpt>
      <trkpt lat="44.45967" lon="3.92287">
        <ele>613.46</ele>
        <time>2026-03-21T14:59:03Z</time>
      </trkpt>
      <trkpt lat="44.45963" lon="3.92293">
        <ele>612.02</ele>
        <time>2026-03-21T14:59:11Z</time>
      </trkpt>
      <trkpt lat="44.45962" lon="3.92301">
        <ele>613.46</ele>
        <time>2026-03-21T14:59:17Z</time>
      </trkpt>
      <trkpt lat="44.4597" lon="3.92316">
        <ele>615.38</ele>
        <time>2026-03-21T14:59:34Z</time>
      </trkpt>
      <trkpt lat="44.45974" lon="3.92331">
        <ele>615.86</ele>
        <time>2026-03-21T14:59:49Z</time>
      </trkpt>
      <trkpt lat="44.45978" lon="3.92338">
        <ele>617.3</ele>
        <time>2026-03-21T14:59:57Z</time>
      </trkpt>
      <trkpt lat="44.45981" lon="3.92343">
        <ele>615.86</ele>
        <time>2026-03-21T15:00:02Z</time>
      </trkpt>
      <trkpt lat="44.45989" lon="3.92354">
        <ele>617.78</ele>
        <time>2026-03-21T15:00:16Z</time>
      </trkpt>
      <trkpt lat="44.4599" lon="3.92366">
        <ele>620.19</ele>
        <time>2026-03-21T15:00:30Z</time>
      </trkpt>
      <trkpt lat="44.45999" lon="3.92368">
        <ele>619.23</ele>
        <time>2026-03-21T15:00:46Z</time>
      </trkpt>
      <trkpt lat="44.46011" lon="3.92366">
        <ele>616.34</ele>
        <time>2026-03-21T15:01:02Z</time>
      </trkpt>
      <trkpt lat="44.46022" lon="3.92359">
        <ele>613.94</ele>
        <time>2026-03-21T15:01:17Z</time>
      </trkpt>
      <trkpt lat="44.4603" lon="3.92346">
        <ele>612.5</ele>
        <time>2026-03-21T15:01:32Z</time>
      </trkpt>
      <trkpt lat="44.46035" lon="3.92327">
        <ele>613.46</ele>
        <time>2026-03-21T15:01:46Z</time>
      </trkpt>
      <trkpt lat="44.4604" lon="3.92317">
        <ele>613.94</ele>
        <time>2026-03-21T15:01:59Z</time>
      </trkpt>
      <trkpt lat="44.46056" lon="3.92296">
        <ele>615.38</ele>
        <time>2026-03-21T15:02:15Z</time>
      </trkpt>
      <trkpt lat="44.46062" lon="3.92288">
        <ele>611.06</ele>
        <time>2026-03-21T15:02:24Z</time>
      </trkpt>
      <trkpt lat="44.46062" lon="3.92287">
        <ele>616.82</ele>
        <time>2026-03-21T15:02:25Z</time>
      </trkpt>
      <trkpt lat="44.46071" lon="3.92271">
        <ele>614.9</ele>
        <time>2026-03-21T15:02:41Z</time>
      </trkpt>
      <trkpt lat="44.46076" lon="3.92253">
        <ele>613.94</ele>
        <time>2026-03-21T15:02:56Z</time>
      </trkpt>
      <trkpt lat="44.46082" lon="3.92237">
        <ele>613.46</ele>
        <time>2026-03-21T15:03:12Z</time>
      </trkpt>
      <trkpt lat="44.46094" lon="3.92221">
        <ele>612.98</ele>
        <time>2026-03-21T15:03:28Z</time>
      </trkpt>
      <trkpt lat="44.4611" lon="3.9221">
        <ele>612.02</ele>
        <time>2026-03-21T15:03:44Z</time>
      </trkpt>
      <trkpt lat="44.46121" lon="3.92214">
        <ele>613.46</ele>
        <time>2026-03-21T15:03:52Z</time>
      </trkpt>
      <trkpt lat="44.46131" lon="3.9222">
        <ele>614.9</ele>
        <time>2026-03-21T15:04:07Z</time>
      </trkpt>
      <trkpt lat="44.46142" lon="3.9221">
        <ele>616.34</ele>
        <time>2026-03-21T15:04:21Z</time>
      </trkpt>
      <trkpt lat="44.46147" lon="3.92193">
        <ele>616.82</ele>
        <time>2026-03-21T15:04:37Z</time>
      </trkpt>
      <trkpt lat="44.4615" lon="3.92178">
        <ele>617.78</ele>
        <time>2026-03-21T15:04:51Z</time>
      </trkpt>
      <trkpt lat="44.46159" lon="3.9216">
        <ele>617.78</ele>
        <time>2026-03-21T15:05:08Z</time>
      </trkpt>
      <trkpt lat="44.46164" lon="3.92149">
        <ele>620.19</ele>
        <time>2026-03-21T15:05:23Z</time>
      </trkpt>
      <trkpt lat="44.46166" lon="3.92142">
        <ele>622.59</ele>
        <time>2026-03-21T15:05:37Z</time>
      </trkpt>
      <trkpt lat="44.46178" lon="3.92136">
        <ele>624.51</ele>
        <time>2026-03-21T15:05:52Z</time>
      </trkpt>
      <trkpt lat="44.46189" lon="3.9213">
        <ele>626.44</ele>
        <time>2026-03-21T15:06:10Z</time>
      </trkpt>
      <trkpt lat="44.46205" lon="3.92122">
        <ele>627.88</ele>
        <time>2026-03-21T15:06:26Z</time>
      </trkpt>
      <trkpt lat="44.46219" lon="3.92115">
        <ele>629.32</ele>
        <time>2026-03-21T15:06:40Z</time>
      </trkpt>
      <trkpt lat="44.46232" lon="3.92111">
        <ele>628.84</ele>
        <time>2026-03-21T15:06:56Z</time>
      </trkpt>
      <trkpt lat="44.46239" lon="3.92103">
        <ele>625.96</ele>
        <time>2026-03-21T15:07:11Z</time>
      </trkpt>
      <trkpt lat="44.46244" lon="3.92094">
        <ele>623.55</ele>
        <time>2026-03-21T15:07:23Z</time>
      </trkpt>
      <trkpt lat="44.46249" lon="3.92078">
        <ele>624.03</ele>
        <time>2026-03-21T15:07:38Z</time>
      </trkpt>
      <trkpt lat="44.46251" lon="3.92059">
        <ele>624.99</ele>
        <time>2026-03-21T15:07:53Z</time>
      </trkpt>
      <trkpt lat="44.46255" lon="3.92052">
        <ele>625.47</ele>
        <time>2026-03-21T15:07:59Z</time>
      </trkpt>
      <trkpt lat="44.46262" lon="3.92035">
        <ele>624.03</ele>
        <time>2026-03-21T15:08:14Z</time>
      </trkpt>
      <trkpt lat="44.4627" lon="3.92029">
        <ele>625.47</ele>
        <time>2026-03-21T15:08:25Z</time>
      </trkpt>
      <trkpt lat="44.46281" lon="3.92019">
        <ele>626.92</ele>
        <time>2026-03-21T15:08:39Z</time>
      </trkpt>
      <trkpt lat="44.46291" lon="3.92011">
        <ele>627.4</ele>
        <time>2026-03-21T15:08:54Z</time>
      </trkpt>
      <trkpt lat="44.46307" lon="3.92002">
        <ele>625.96</ele>
        <time>2026-03-21T15:09:10Z</time>
      </trkpt>
      <trkpt lat="44.46323" lon="3.91996">
        <ele>623.55</ele>
        <time>2026-03-21T15:09:25Z</time>
      </trkpt>
      <trkpt lat="44.46338" lon="3.91985">
        <ele>622.59</ele>
        <time>2026-03-21T15:09:41Z</time>
      </trkpt>
      <trkpt lat="44.46347" lon="3.9197">
        <ele>620.19</ele>
        <time>2026-03-21T15:09:56Z</time>
      </trkpt>
      <trkpt lat="44.46348" lon="3.91961">
        <ele>619.23</ele>
        <time>2026-03-21T15:10:09Z</time>
      </trkpt>
      <trkpt lat="44.46348" lon="3.91961">
        <ele>620.67</ele>
        <time>2026-03-21T15:10:11Z</time>
      </trkpt>
      <trkpt lat="44.46345" lon="3.91957">
        <ele>619.71</ele>
        <time>2026-03-21T15:10:29Z</time>
      </trkpt>
      <trkpt lat="44.46343" lon="3.91958">
        <ele>619.71</ele>
        <time>2026-03-21T15:10:32Z</time>
      </trkpt>
      <trkpt lat="44.46339" lon="3.91956">
        <ele>619.23</ele>
        <time>2026-03-21T15:10:48Z</time>
      </trkpt>
      <trkpt lat="44.46344" lon="3.91954">
        <ele>619.23</ele>
        <time>2026-03-21T15:11:13Z</time>
      </trkpt>
      <trkpt lat="44.46345" lon="3.91958">
        <ele>618.75</ele>
        <time>2026-03-21T15:11:28Z</time>
      </trkpt>
      <trkpt lat="44.46346" lon="3.91959">
        <ele>619.23</ele>
        <time>2026-03-21T15:11:47Z</time>
      </trkpt>
      <trkpt lat="44.46346" lon="3.91959">
        <ele>620.19</ele>
        <time>2026-03-21T15:12:11Z</time>
      </trkpt>
      <trkpt lat="44.46347" lon="3.91959">
        <ele>620.19</ele>
        <time>2026-03-21T15:12:12Z</time>
      </trkpt>
      <trkpt lat="44.4635" lon="3.9196">
        <ele>620.67</ele>
        <time>2026-03-21T15:12:15Z</time>
      </trkpt>
      <trkpt lat="44.46359" lon="3.91965">
        <ele>621.15</ele>
        <time>2026-03-21T15:12:23Z</time>
      </trkpt>
      <trkpt lat="44.46366" lon="3.91967">
        <ele>619.71</ele>
        <time>2026-03-21T15:12:26Z</time>
      </trkpt>
      <trkpt lat="44.46375" lon="3.91973">
        <ele>621.15</ele>
        <time>2026-03-21T15:12:34Z</time>
      </trkpt>
      <trkpt lat="44.46381" lon="3.91976">
        <ele>621.15</ele>
        <time>2026-03-21T15:12:39Z</time>
      </trkpt>
      <trkpt lat="44.46384" lon="3.91982">
        <ele>619.71</ele>
        <time>2026-03-21T15:12:43Z</time>
      </trkpt>
      <trkpt lat="44.46384" lon="3.91989">
        <ele>622.11</ele>
        <time>2026-03-21T15:12:54Z</time>
      </trkpt>
      <trkpt lat="44.46385" lon="3.92004">
        <ele>623.55</ele>
        <time>2026-03-21T15:13:07Z</time>
      </trkpt>
      <trkpt lat="44.46388" lon="3.92018">
        <ele>626.44</ele>
        <time>2026-03-21T15:13:19Z</time>
      </trkpt>
      <trkpt lat="44.46391" lon="3.92034">
        <ele>626.44</ele>
        <time>2026-03-21T15:13:33Z</time>
      </trkpt>
      <trkpt lat="44.4639" lon="3.92035">
        <ele>626.44</ele>
        <time>2026-03-21T15:13:34Z</time>
      </trkpt>
      <trkpt lat="44.46389" lon="3.92038">
        <ele>624.99</ele>
        <time>2026-03-21T15:13:36Z</time>
      </trkpt>
      <trkpt lat="44.46389" lon="3.92053">
        <ele>626.44</ele>
        <time>2026-03-21T15:13:53Z</time>
      </trkpt>
      <trkpt lat="44.46389" lon="3.92052">
        <ele>626.44</ele>
        <time>2026-03-21T15:13:54Z</time>
      </trkpt>
      <trkpt lat="44.46389" lon="3.92055">
        <ele>628.84</ele>
        <time>2026-03-21T15:14:06Z</time>
      </trkpt>
      <trkpt lat="44.46378" lon="3.92065">
        <ele>631.24</ele>
        <time>2026-03-21T15:14:19Z</time>
      </trkpt>
      <trkpt lat="44.46375" lon="3.92076">
        <ele>632.68</ele>
        <time>2026-03-21T15:14:32Z</time>
      </trkpt>
      <trkpt lat="44.46375" lon="3.92084">
        <ele>634.61</ele>
        <time>2026-03-21T15:14:46Z</time>
      </trkpt>
      <trkpt lat="44.46379" lon="3.92077">
        <ele>635.57</ele>
        <time>2026-03-21T15:14:54Z</time>
      </trkpt>
      <trkpt lat="44.4638" lon="3.92081">
        <ele>637.49</ele>
        <time>2026-03-21T15:15:06Z</time>
      </trkpt>
      <trkpt lat="44.46386" lon="3.92085">
        <ele>639.89</ele>
        <time>2026-03-21T15:15:17Z</time>
      </trkpt>
      <trkpt lat="44.46385" lon="3.92086">
        <ele>641.34</ele>
        <time>2026-03-21T15:15:19Z</time>
      </trkpt>
      <trkpt lat="44.46379" lon="3.92095">
        <ele>641.82</ele>
        <time>2026-03-21T15:15:33Z</time>
      </trkpt>
      <trkpt lat="44.46375" lon="3.92098">
        <ele>642.3</ele>
        <time>2026-03-21T15:15:53Z</time>
      </trkpt>
      <trkpt lat="44.46374" lon="3.92098">
        <ele>642.3</ele>
        <time>2026-03-21T15:15:54Z</time>
      </trkpt>
      <trkpt lat="44.46366" lon="3.92099">
        <ele>640.86</ele>
        <time>2026-03-21T15:16:07Z</time>
      </trkpt>
      <trkpt lat="44.4636" lon="3.92104">
        <ele>640.86</ele>
        <time>2026-03-21T15:16:19Z</time>
      </trkpt>
      <trkpt lat="44.46347" lon="3.92119">
        <ele>642.78</ele>
        <time>2026-03-21T15:16:37Z</time>
      </trkpt>
      <trkpt lat="44.46347" lon="3.9212">
        <ele>643.26</ele>
        <time>2026-03-21T15:16:38Z</time>
      </trkpt>
      <trkpt lat="44.46339" lon="3.92128">
        <ele>641.82</ele>
        <time>2026-03-21T15:16:51Z</time>
      </trkpt>
      <trkpt lat="44.46336" lon="3.92131">
        <ele>640.38</ele>
        <time>2026-03-21T15:16:55Z</time>
      </trkpt>
      <trkpt lat="44.46333" lon="3.92131">
        <ele>639.89</ele>
        <time>2026-03-21T15:17:08Z</time>
      </trkpt>
      <trkpt lat="44.46332" lon="3.9213">
        <ele>640.38</ele>
        <time>2026-03-21T15:17:14Z</time>
      </trkpt>
      <trkpt lat="44.4633" lon="3.92139">
        <ele>639.41</ele>
        <time>2026-03-21T15:17:20Z</time>
      </trkpt>
      <trkpt lat="44.46333" lon="3.92154">
        <ele>638.45</ele>
        <time>2026-03-21T15:17:34Z</time>
      </trkpt>
      <trkpt lat="44.46333" lon="3.92155">
        <ele>637.49</ele>
        <time>2026-03-21T15:17:35Z</time>
      </trkpt>
      <trkpt lat="44.46334" lon="3.92161">
        <ele>635.57</ele>
        <time>2026-03-21T15:17:42Z</time>
      </trkpt>
      <trkpt lat="44.4634" lon="3.9217">
        <ele>633.17</ele>
        <time>2026-03-21T15:17:55Z</time>
      </trkpt>
      <trkpt lat="44.4634" lon="3.92185">
        <ele>631.24</ele>
        <time>2026-03-21T15:18:08Z</time>
      </trkpt>
      <trkpt lat="44.46339" lon="3.92188">
        <ele>630.76</ele>
        <time>2026-03-21T15:18:17Z</time>
      </trkpt>
      <trkpt lat="44.46337" lon="3.92205">
        <ele>632.68</ele>
        <time>2026-03-21T15:18:33Z</time>
      </trkpt>
      <trkpt lat="44.46337" lon="3.92212">
        <ele>635.57</ele>
        <time>2026-03-21T15:18:44Z</time>
      </trkpt>
      <trkpt lat="44.46337" lon="3.92225">
        <ele>636.53</ele>
        <time>2026-03-21T15:18:56Z</time>
      </trkpt>
      <trkpt lat="44.46338" lon="3.92231">
        <ele>636.53</ele>
        <time>2026-03-21T15:19:00Z</time>
      </trkpt>
      <trkpt lat="44.46343" lon="3.92247">
        <ele>635.57</ele>
        <time>2026-03-21T15:19:14Z</time>
      </trkpt>
      <trkpt lat="44.46344" lon="3.92264">
        <ele>635.09</ele>
        <time>2026-03-21T15:19:27Z</time>
      </trkpt>
      <trkpt lat="44.46343" lon="3.92273">
        <ele>636.53</ele>
        <time>2026-03-21T15:19:33Z</time>
      </trkpt>
      <trkpt lat="44.46338" lon="3.92289">
        <ele>638.45</ele>
        <time>2026-03-21T15:19:48Z</time>
      </trkpt>
      <trkpt lat="44.46334" lon="3.92306">
        <ele>641.34</ele>
        <time>2026-03-21T15:20:04Z</time>
      </trkpt>
      <trkpt lat="44.46337" lon="3.92321">
        <ele>643.26</ele>
        <time>2026-03-21T15:20:17Z</time>
      </trkpt>
      <trkpt lat="44.46343" lon="3.92329">
        <ele>645.18</ele>
        <time>2026-03-21T15:20:32Z</time>
      </trkpt>
      <trkpt lat="44.46346" lon="3.92334">
        <ele>643.74</ele>
        <time>2026-03-21T15:20:40Z</time>
      </trkpt>
      <trkpt lat="44.46359" lon="3.92337">
        <ele>637.49</ele>
        <time>2026-03-21T15:20:53Z</time>
      </trkpt>
      <trkpt lat="44.4636" lon="3.92337">
        <ele>644.7</ele>
        <time>2026-03-21T15:20:54Z</time>
      </trkpt>
      <trkpt lat="44.46362" lon="3.92338">
        <ele>641.34</ele>
        <time>2026-03-21T15:20:56Z</time>
      </trkpt>
      <trkpt lat="44.46372" lon="3.9234">
        <ele>639.89</ele>
        <time>2026-03-21T15:21:05Z</time>
      </trkpt>
      <trkpt lat="44.46383" lon="3.92345">
        <ele>636.53</ele>
        <time>2026-03-21T15:21:19Z</time>
      </trkpt>
      <trkpt lat="44.46406" lon="3.92352">
        <ele>634.61</ele>
        <time>2026-03-21T15:21:35Z</time>
      </trkpt>
      <trkpt lat="44.46423" lon="3.92356">
        <ele>632.68</ele>
        <time>2026-03-21T15:21:50Z</time>
      </trkpt>
      <trkpt lat="44.46424" lon="3.92356">
        <ele>628.36</ele>
        <time>2026-03-21T15:21:51Z</time>
      </trkpt>
      <trkpt lat="44.46425" lon="3.92357">
        <ele>636.05</ele>
        <time>2026-03-21T15:21:52Z</time>
      </trkpt>
      <trkpt lat="44.46427" lon="3.92359">
        <ele>632.2</ele>
        <time>2026-03-21T15:21:54Z</time>
      </trkpt>
      <trkpt lat="44.46428" lon="3.9236">
        <ele>632.2</ele>
        <time>2026-03-21T15:21:55Z</time>
      </trkpt>
      <trkpt lat="44.46443" lon="3.9236">
        <ele>630.76</ele>
        <time>2026-03-21T15:22:11Z</time>
      </trkpt>
      <trkpt lat="44.46444" lon="3.9236">
        <ele>630.76</ele>
        <time>2026-03-21T15:22:12Z</time>
      </trkpt>
      <trkpt lat="44.46449" lon="3.92362">
        <ele>633.17</ele>
        <time>2026-03-21T15:22:17Z</time>
      </trkpt>
      <trkpt lat="44.46469" lon="3.92364">
        <ele>628.36</ele>
        <time>2026-03-21T15:22:31Z</time>
      </trkpt>
      <trkpt lat="44.46476" lon="3.92362">
        <ele>627.4</ele>
        <time>2026-03-21T15:22:41Z</time>
      </trkpt>
      <trkpt lat="44.46487" lon="3.92359">
        <ele>626.44</ele>
        <time>2026-03-21T15:22:49Z</time>
      </trkpt>
      <trkpt lat="44.46493" lon="3.92352">
        <ele>625.47</ele>
        <time>2026-03-21T15:22:58Z</time>
      </trkpt>
      <trkpt lat="44.46503" lon="3.92353">
        <ele>624.99</ele>
        <time>2026-03-21T15:23:12Z</time>
      </trkpt>
      <trkpt lat="44.46515" lon="3.92371">
        <ele>627.4</ele>
        <time>2026-03-21T15:23:26Z</time>
      </trkpt>
      <trkpt lat="44.46521" lon="3.92394">
        <ele>628.84</ele>
        <time>2026-03-21T15:23:41Z</time>
      </trkpt>
      <trkpt lat="44.46527" lon="3.92403">
        <ele>631.24</ele>
        <time>2026-03-21T15:23:57Z</time>
      </trkpt>
      <trkpt lat="44.46539" lon="3.92403">
        <ele>633.65</ele>
        <time>2026-03-21T15:24:12Z</time>
      </trkpt>
      <trkpt lat="44.46553" lon="3.92402">
        <ele>634.13</ele>
        <time>2026-03-21T15:24:27Z</time>
      </trkpt>
      <trkpt lat="44.46565" lon="3.92394">
        <ele>635.09</ele>
        <time>2026-03-21T15:24:44Z</time>
      </trkpt>
      <trkpt lat="44.46573" lon="3.92385">
        <ele>637.01</ele>
        <time>2026-03-21T15:24:58Z</time>
      </trkpt>
      <trkpt lat="44.46576" lon="3.9238">
        <ele>637.01</ele>
        <time>2026-03-21T15:25:05Z</time>
      </trkpt>
      <trkpt lat="44.46581" lon="3.92366">
        <ele>635.57</ele>
        <time>2026-03-21T15:25:18Z</time>
      </trkpt>
      <trkpt lat="44.4658" lon="3.92351">
        <ele>637.97</ele>
        <time>2026-03-21T15:25:31Z</time>
      </trkpt>
      <trkpt lat="44.46585" lon="3.9234">
        <ele>637.97</ele>
        <time>2026-03-21T15:25:44Z</time>
      </trkpt>
      <trkpt lat="44.46589" lon="3.92335">
        <ele>637.97</ele>
        <time>2026-03-21T15:25:51Z</time>
      </trkpt>
      <trkpt lat="44.46593" lon="3.92329">
        <ele>636.53</ele>
        <time>2026-03-21T15:25:57Z</time>
      </trkpt>
      <trkpt lat="44.46603" lon="3.92319">
        <ele>635.57</ele>
        <time>2026-03-21T15:26:12Z</time>
      </trkpt>
      <trkpt lat="44.46608" lon="3.92319">
        <ele>636.53</ele>
        <time>2026-03-21T15:26:19Z</time>
      </trkpt>
      <trkpt lat="44.46618" lon="3.92326">
        <ele>636.53</ele>
        <time>2026-03-21T15:26:33Z</time>
      </trkpt>
      <trkpt lat="44.46634" lon="3.92336">
        <ele>636.53</ele>
        <time>2026-03-21T15:26:47Z</time>
      </trkpt>
      <trkpt lat="44.46646" lon="3.92344">
        <ele>634.13</ele>
        <time>2026-03-21T15:26:59Z</time>
      </trkpt>
      <trkpt lat="44.4666" lon="3.92348">
        <ele>631.24</ele>
        <time>2026-03-21T15:27:11Z</time>
      </trkpt>
      <trkpt lat="44.4667" lon="3.92348">
        <ele>630.28</ele>
        <time>2026-03-21T15:27:25Z</time>
      </trkpt>
      <trkpt lat="44.46681" lon="3.92347">
        <ele>630.28</ele>
        <time>2026-03-21T15:27:39Z</time>
      </trkpt>
      <trkpt lat="44.46686" lon="3.92346">
        <ele>630.28</ele>
        <time>2026-03-21T15:27:45Z</time>
      </trkpt>
      <trkpt lat="44.46697" lon="3.92344">
        <ele>627.4</ele>
        <time>2026-03-21T15:27:59Z</time>
      </trkpt>
      <trkpt lat="44.467" lon="3.92341">
        <ele>627.4</ele>
        <time>2026-03-21T15:28:03Z</time>
      </trkpt>
      <trkpt lat="44.46705" lon="3.92336">
        <ele>628.84</ele>
        <time>2026-03-21T15:28:08Z</time>
      </trkpt>
      <trkpt lat="44.46717" lon="3.92321">
        <ele>629.8</ele>
        <time>2026-03-21T15:28:23Z</time>
      </trkpt>
      <trkpt lat="44.46729" lon="3.92305">
        <ele>631.24</ele>
        <time>2026-03-21T15:28:40Z</time>
      </trkpt>
      <trkpt lat="44.46743" lon="3.92295">
        <ele>632.2</ele>
        <time>2026-03-21T15:28:56Z</time>
      </trkpt>
      <trkpt lat="44.46758" lon="3.92304">
        <ele>633.65</ele>
        <time>2026-03-21T15:29:11Z</time>
      </trkpt>
      <trkpt lat="44.46761" lon="3.92312">
        <ele>634.13</ele>
        <time>2026-03-21T15:29:17Z</time>
      </trkpt>
      <trkpt lat="44.46769" lon="3.92333">
        <ele>634.61</ele>
        <time>2026-03-21T15:29:29Z</time>
      </trkpt>
      <trkpt lat="44.46765" lon="3.92342">
        <ele>629.8</ele>
        <time>2026-03-21T15:29:36Z</time>
      </trkpt>
      <trkpt lat="44.46764" lon="3.92343">
        <ele>638.45</ele>
        <time>2026-03-21T15:29:37Z</time>
      </trkpt>
      <trkpt lat="44.46763" lon="3.9235">
        <ele>635.09</ele>
        <time>2026-03-21T15:29:41Z</time>
      </trkpt>
      <trkpt lat="44.46764" lon="3.92359">
        <ele>635.09</ele>
        <time>2026-03-21T15:29:46Z</time>
      </trkpt>
      <trkpt lat="44.46767" lon="3.92365">
        <ele>634.61</ele>
        <time>2026-03-21T15:29:51Z</time>
      </trkpt>
      <trkpt lat="44.4677" lon="3.92368">
        <ele>634.13</ele>
        <time>2026-03-21T15:29:55Z</time>
      </trkpt>
      <trkpt lat="44.46787" lon="3.92365">
        <ele>633.17</ele>
        <time>2026-03-21T15:30:12Z</time>
      </trkpt>
      <trkpt lat="44.46809" lon="3.9236">
        <ele>631.24</ele>
        <time>2026-03-21T15:30:32Z</time>
      </trkpt>
      <trkpt lat="44.46824" lon="3.92359">
        <ele>630.76</ele>
        <time>2026-03-21T15:30:46Z</time>
      </trkpt>
      <trkpt lat="44.46834" lon="3.92363">
        <ele>629.8</ele>
        <time>2026-03-21T15:30:57Z</time>
      </trkpt>
      <trkpt lat="44.46849" lon="3.92374">
        <ele>628.84</ele>
        <time>2026-03-21T15:31:14Z</time>
      </trkpt>
      <trkpt lat="44.46864" lon="3.92384">
        <ele>627.88</ele>
        <time>2026-03-21T15:31:28Z</time>
      </trkpt>
      <trkpt lat="44.4688" lon="3.92387">
        <ele>626.44</ele>
        <time>2026-03-21T15:31:45Z</time>
      </trkpt>
      <trkpt lat="44.46888" lon="3.92385">
        <ele>625.96</ele>
        <time>2026-03-21T15:31:54Z</time>
      </trkpt>
      <trkpt lat="44.46902" lon="3.92376">
        <ele>624.51</ele>
        <time>2026-03-21T15:32:10Z</time>
      </trkpt>
      <trkpt lat="44.46918" lon="3.92367">
        <ele>623.07</ele>
        <time>2026-03-21T15:32:24Z</time>
      </trkpt>
      <trkpt lat="44.46936" lon="3.9237">
        <ele>621.63</ele>
        <time>2026-03-21T15:32:41Z</time>
      </trkpt>
      <trkpt lat="44.46951" lon="3.92367">
        <ele>620.19</ele>
        <time>2026-03-21T15:32:55Z</time>
      </trkpt>
      <trkpt lat="44.46967" lon="3.92361">
        <ele>619.23</ele>
        <time>2026-03-21T15:33:10Z</time>
      </trkpt>
      <trkpt lat="44.46985" lon="3.92361">
        <ele>617.3</ele>
        <time>2026-03-21T15:33:26Z</time>
      </trkpt>
      <trkpt lat="44.46986" lon="3.92362">
        <ele>617.3</ele>
        <time>2026-03-21T15:33:27Z</time>
      </trkpt>
      <trkpt lat="44.47" lon="3.9236">
        <ele>615.86</ele>
        <time>2026-03-21T15:33:43Z</time>
      </trkpt>
      <trkpt lat="44.47014" lon="3.92366">
        <ele>613.94</ele>
        <time>2026-03-21T15:33:56Z</time>
      </trkpt>
      <trkpt lat="44.47029" lon="3.92383">
        <ele>612.98</ele>
        <time>2026-03-21T15:34:11Z</time>
      </trkpt>
      <trkpt lat="44.47034" lon="3.92412">
        <ele>612.02</ele>
        <time>2026-03-21T15:34:25Z</time>
      </trkpt>
      <trkpt lat="44.47023" lon="3.92451">
        <ele>611.54</ele>
        <time>2026-03-21T15:34:44Z</time>
      </trkpt>
      <trkpt lat="44.47009" lon="3.92464">
        <ele>611.54</ele>
        <time>2026-03-21T15:34:59Z</time>
      </trkpt>
      <trkpt lat="44.46991" lon="3.92473">
        <ele>609.13</ele>
        <time>2026-03-21T15:35:16Z</time>
      </trkpt>
      <trkpt lat="44.46973" lon="3.92483">
        <ele>607.69</ele>
        <time>2026-03-21T15:35:35Z</time>
      </trkpt>
      <trkpt lat="44.46962" lon="3.92489">
        <ele>607.69</ele>
        <time>2026-03-21T15:35:49Z</time>
      </trkpt>
      <trkpt lat="44.46948" lon="3.92484">
        <ele>607.21</ele>
        <time>2026-03-21T15:36:00Z</time>
      </trkpt>
      <trkpt lat="44.4693" lon="3.92479">
        <ele>607.21</ele>
        <time>2026-03-21T15:36:12Z</time>
      </trkpt>
      <trkpt lat="44.46914" lon="3.92482">
        <ele>606.25</ele>
        <time>2026-03-21T15:36:26Z</time>
      </trkpt>
      <trkpt lat="44.46912" lon="3.92483">
        <ele>606.25</ele>
        <time>2026-03-21T15:36:29Z</time>
      </trkpt>
      <trkpt lat="44.46898" lon="3.92487">
        <ele>605.77</ele>
        <time>2026-03-21T15:36:45Z</time>
      </trkpt>
      <trkpt lat="44.46888" lon="3.92495">
        <ele>605.77</ele>
        <time>2026-03-21T15:36:56Z</time>
      </trkpt>
      <trkpt lat="44.46876" lon="3.92502">
        <ele>607.21</ele>
        <time>2026-03-21T15:37:07Z</time>
      </trkpt>
      <trkpt lat="44.46862" lon="3.92511">
        <ele>607.21</ele>
        <time>2026-03-21T15:37:24Z</time>
      </trkpt>
      <trkpt lat="44.46847" lon="3.92516">
        <ele>608.17</ele>
        <time>2026-03-21T15:37:40Z</time>
      </trkpt>
      <trkpt lat="44.4683" lon="3.9252">
        <ele>609.13</ele>
        <time>2026-03-21T15:37:56Z</time>
      </trkpt>
      <trkpt lat="44.4682" lon="3.92526">
        <ele>611.54</ele>
        <time>2026-03-21T15:38:06Z</time>
      </trkpt>
      <trkpt lat="44.46803" lon="3.9254">
        <ele>612.02</ele>
        <time>2026-03-21T15:38:23Z</time>
      </trkpt>
      <trkpt lat="44.46802" lon="3.9254">
        <ele>612.02</ele>
        <time>2026-03-21T15:38:24Z</time>
      </trkpt>
      <trkpt lat="44.46791" lon="3.92549">
        <ele>613.46</ele>
        <time>2026-03-21T15:38:37Z</time>
      </trkpt>
      <trkpt lat="44.46777" lon="3.92563">
        <ele>612.02</ele>
        <time>2026-03-21T15:38:53Z</time>
      </trkpt>
      <trkpt lat="44.46761" lon="3.92566">
        <ele>609.61</ele>
        <time>2026-03-21T15:39:10Z</time>
      </trkpt>
      <trkpt lat="44.46753" lon="3.92568">
        <ele>608.65</ele>
        <time>2026-03-21T15:39:18Z</time>
      </trkpt>
      <trkpt lat="44.46735" lon="3.92561">
        <ele>608.65</ele>
        <time>2026-03-21T15:39:34Z</time>
      </trkpt>
      <trkpt lat="44.46716" lon="3.92559">
        <ele>608.65</ele>
        <time>2026-03-21T15:39:51Z</time>
      </trkpt>
      <trkpt lat="44.46696" lon="3.92558">
        <ele>609.13</ele>
        <time>2026-03-21T15:40:09Z</time>
      </trkpt>
      <trkpt lat="44.46678" lon="3.92563">
        <ele>609.13</ele>
        <time>2026-03-21T15:40:27Z</time>
      </trkpt>
      <trkpt lat="44.46663" lon="3.92578">
        <ele>608.65</ele>
        <time>2026-03-21T15:40:45Z</time>
      </trkpt>
      <trkpt lat="44.46662" lon="3.92589">
        <ele>610.09</ele>
        <time>2026-03-21T15:40:53Z</time>
      </trkpt>
      <trkpt lat="44.46661" lon="3.92597">
        <ele>610.09</ele>
        <time>2026-03-21T15:40:59Z</time>
      </trkpt>
      <trkpt lat="44.46657" lon="3.92619">
        <ele>611.06</ele>
        <time>2026-03-21T15:41:15Z</time>
      </trkpt>
      <trkpt lat="44.4665" lon="3.92628">
        <ele>609.61</ele>
        <time>2026-03-21T15:41:25Z</time>
      </trkpt>
      <trkpt lat="44.46632" lon="3.92615">
        <ele>611.06</ele>
        <time>2026-03-21T15:41:45Z</time>
      </trkpt>
      <trkpt lat="44.46615" lon="3.9262">
        <ele>611.06</ele>
        <time>2026-03-21T15:42:01Z</time>
      </trkpt>
      <trkpt lat="44.46608" lon="3.92625">
        <ele>609.61</ele>
        <time>2026-03-21T15:42:09Z</time>
      </trkpt>
      <trkpt lat="44.4659" lon="3.92621">
        <ele>609.13</ele>
        <time>2026-03-21T15:42:24Z</time>
      </trkpt>
      <trkpt lat="44.46569" lon="3.92625">
        <ele>609.61</ele>
        <time>2026-03-21T15:42:41Z</time>
      </trkpt>
      <trkpt lat="44.4656" lon="3.92627">
        <ele>609.61</ele>
        <time>2026-03-21T15:42:49Z</time>
      </trkpt>
      <trkpt lat="44.46555" lon="3.92628">
        <ele>609.61</ele>
        <time>2026-03-21T15:42:54Z</time>
      </trkpt>
      <trkpt lat="44.46553" lon="3.92627">
        <ele>609.61</ele>
        <time>2026-03-21T15:42:56Z</time>
      </trkpt>
      <trkpt lat="44.4653" lon="3.9263">
        <ele>609.13</ele>
        <time>2026-03-21T15:43:16Z</time>
      </trkpt>
      <trkpt lat="44.4651" lon="3.92634">
        <ele>609.13</ele>
        <time>2026-03-21T15:43:35Z</time>
      </trkpt>
      <trkpt lat="44.46493" lon="3.92636">
        <ele>609.13</ele>
        <time>2026-03-21T15:43:51Z</time>
      </trkpt>
      <trkpt lat="44.46482" lon="3.92651">
        <ele>610.09</ele>
        <time>2026-03-21T15:44:06Z</time>
      </trkpt>
      <trkpt lat="44.46478" lon="3.92668">
        <ele>610.09</ele>
        <time>2026-03-21T15:44:20Z</time>
      </trkpt>
      <trkpt lat="44.46467" lon="3.92679">
        <ele>612.02</ele>
        <time>2026-03-21T15:44:35Z</time>
      </trkpt>
      <trkpt lat="44.46451" lon="3.92673">
        <ele>612.5</ele>
        <time>2026-03-21T15:44:52Z</time>
      </trkpt>
      <trkpt lat="44.46443" lon="3.92658">
        <ele>612.5</ele>
        <time>2026-03-21T15:45:01Z</time>
      </trkpt>
      <trkpt lat="44.46439" lon="3.92645">
        <ele>611.54</ele>
        <time>2026-03-21T15:45:06Z</time>
      </trkpt>
      <trkpt lat="44.46435" lon="3.92639">
        <ele>611.54</ele>
        <time>2026-03-21T15:45:11Z</time>
      </trkpt>
      <trkpt lat="44.4642" lon="3.92616">
        <ele>612.5</ele>
        <time>2026-03-21T15:45:32Z</time>
      </trkpt>
      <trkpt lat="44.46404" lon="3.92611">
        <ele>612.5</ele>
        <time>2026-03-21T15:45:51Z</time>
      </trkpt>
      <trkpt lat="44.46388" lon="3.92614">
        <ele>610.09</ele>
        <time>2026-03-21T15:46:06Z</time>
      </trkpt>
      <trkpt lat="44.46368" lon="3.92621">
        <ele>610.09</ele>
        <time>2026-03-21T15:46:24Z</time>
      </trkpt>
      <trkpt lat="44.4635" lon="3.92626">
        <ele>610.09</ele>
        <time>2026-03-21T15:46:42Z</time>
      </trkpt>
      <trkpt lat="44.46331" lon="3.92636">
        <ele>610.09</ele>
        <time>2026-03-21T15:47:01Z</time>
      </trkpt>
      <trkpt lat="44.46329" lon="3.9264">
        <ele>610.09</ele>
        <time>2026-03-21T15:47:05Z</time>
      </trkpt>
      <trkpt lat="44.4632" lon="3.92663">
        <ele>610.57</ele>
        <time>2026-03-21T15:47:23Z</time>
      </trkpt>
      <trkpt lat="44.46316" lon="3.92686">
        <ele>613.46</ele>
        <time>2026-03-21T15:47:39Z</time>
      </trkpt>
      <trkpt lat="44.46311" lon="3.92693">
        <ele>614.9</ele>
        <time>2026-03-21T15:47:47Z</time>
      </trkpt>
      <trkpt lat="44.46286" lon="3.92696">
        <ele>614.9</ele>
        <time>2026-03-21T15:48:07Z</time>
      </trkpt>
      <trkpt lat="44.46276" lon="3.92695">
        <ele>613.94</ele>
        <time>2026-03-21T15:48:15Z</time>
      </trkpt>
      <trkpt lat="44.46267" lon="3.92693">
        <ele>613.94</ele>
        <time>2026-03-21T15:48:24Z</time>
      </trkpt>
      <trkpt lat="44.46241" lon="3.92684">
        <ele>613.94</ele>
        <time>2026-03-21T15:48:45Z</time>
      </trkpt>
      <trkpt lat="44.46231" lon="3.927">
        <ele>614.42</ele>
        <time>2026-03-21T15:49:02Z</time>
      </trkpt>
      <trkpt lat="44.46222" lon="3.92722">
        <ele>614.9</ele>
        <time>2026-03-21T15:49:19Z</time>
      </trkpt>
      <trkpt lat="44.46212" lon="3.92733">
        <ele>615.38</ele>
        <time>2026-03-21T15:49:30Z</time>
      </trkpt>
      <trkpt lat="44.46191" lon="3.92724">
        <ele>615.38</ele>
        <time>2026-03-21T15:49:49Z</time>
      </trkpt>
      <trkpt lat="44.46182" lon="3.92717">
        <ele>614.9</ele>
        <time>2026-03-21T15:50:06Z</time>
      </trkpt>
      <trkpt lat="44.46174" lon="3.92711">
        <ele>614.9</ele>
        <time>2026-03-21T15:50:19Z</time>
      </trkpt>
      <trkpt lat="44.46159" lon="3.927">
        <ele>616.82</ele>
        <time>2026-03-21T15:50:34Z</time>
      </trkpt>
      <trkpt lat="44.46145" lon="3.92706">
        <ele>617.3</ele>
        <time>2026-03-21T15:50:47Z</time>
      </trkpt>
      <trkpt lat="44.4613" lon="3.92717">
        <ele>617.3</ele>
        <time>2026-03-21T15:51:05Z</time>
      </trkpt>
      <trkpt lat="44.46114" lon="3.92726">
        <ele>616.34</ele>
        <time>2026-03-21T15:51:23Z</time>
      </trkpt>
      <trkpt lat="44.46101" lon="3.9274">
        <ele>613.94</ele>
        <time>2026-03-21T15:51:39Z</time>
      </trkpt>
      <trkpt lat="44.46088" lon="3.92758">
        <ele>613.94</ele>
        <time>2026-03-21T15:51:56Z</time>
      </trkpt>
      <trkpt lat="44.46085" lon="3.92769">
        <ele>613.94</ele>
        <time>2026-03-21T15:52:04Z</time>
      </trkpt>
      <trkpt lat="44.4608" lon="3.92784">
        <ele>612.5</ele>
        <time>2026-03-21T15:52:13Z</time>
      </trkpt>
      <trkpt lat="44.46065" lon="3.92803">
        <ele>614.42</ele>
        <time>2026-03-21T15:52:31Z</time>
      </trkpt>
      <trkpt lat="44.46052" lon="3.92803">
        <ele>612.98</ele>
        <time>2026-03-21T15:52:42Z</time>
      </trkpt>
      <trkpt lat="44.46044" lon="3.92798">
        <ele>612.98</ele>
        <time>2026-03-21T15:52:49Z</time>
      </trkpt>
      <trkpt lat="44.46023" lon="3.92789">
        <ele>612.98</ele>
        <time>2026-03-21T15:53:09Z</time>
      </trkpt>
      <trkpt lat="44.4602" lon="3.92794">
        <ele>613.46</ele>
        <time>2026-03-21T15:53:23Z</time>
      </trkpt>
      <trkpt lat="44.46021" lon="3.92795">
        <ele>612.02</ele>
        <time>2026-03-21T15:53:25Z</time>
      </trkpt>
      <trkpt lat="44.46021" lon="3.92796">
        <ele>611.54</ele>
        <time>2026-03-21T15:53:53Z</time>
      </trkpt>
      <trkpt lat="44.46021" lon="3.92793">
        <ele>611.54</ele>
        <time>2026-03-21T15:54:29Z</time>
      </trkpt>
      <trkpt lat="44.46022" lon="3.92792">
        <ele>611.54</ele>
        <time>2026-03-21T15:55:06Z</time>
      </trkpt>
      <trkpt lat="44.46021" lon="3.92794">
        <ele>612.02</ele>
        <time>2026-03-21T15:55:29Z</time>
      </trkpt>
      <trkpt lat="44.46021" lon="3.92792">
        <ele>612.02</ele>
        <time>2026-03-21T15:56:12Z</time>
      </trkpt>
      <trkpt lat="44.46015" lon="3.92789">
        <ele>612.02</ele>
        <time>2026-03-21T15:56:21Z</time>
      </trkpt>
      <trkpt lat="44.45996" lon="3.92793">
        <ele>612.02</ele>
        <time>2026-03-21T15:56:37Z</time>
      </trkpt>
      <trkpt lat="44.45984" lon="3.92797">
        <ele>612.02</ele>
        <time>2026-03-21T15:56:50Z</time>
      </trkpt>
      <trkpt lat="44.45965" lon="3.92802">
        <ele>612.02</ele>
        <time>2026-03-21T15:57:07Z</time>
      </trkpt>
      <trkpt lat="44.45961" lon="3.92801">
        <ele>613.46</ele>
        <time>2026-03-21T15:57:11Z</time>
      </trkpt>
      <trkpt lat="44.4595" lon="3.9278">
        <ele>615.38</ele>
        <time>2026-03-21T15:57:27Z</time>
      </trkpt>
      <trkpt lat="44.45947" lon="3.92767">
        <ele>615.86</ele>
        <time>2026-03-21T15:57:35Z</time>
      </trkpt>
      <trkpt lat="44.4594" lon="3.92736">
        <ele>615.38</ele>
        <time>2026-03-21T15:57:54Z</time>
      </trkpt>
      <trkpt lat="44.45937" lon="3.92728">
        <ele>614.42</ele>
        <time>2026-03-21T15:58:00Z</time>
      </trkpt>
      <trkpt lat="44.45915" lon="3.92725">
        <ele>614.42</ele>
        <time>2026-03-21T15:58:22Z</time>
      </trkpt>
      <trkpt lat="44.45896" lon="3.92738">
        <ele>612.98</ele>
        <time>2026-03-21T15:58:41Z</time>
      </trkpt>
      <trkpt lat="44.45888" lon="3.9276">
        <ele>612.98</ele>
        <time>2026-03-21T15:58:58Z</time>
      </trkpt>
      <trkpt lat="44.45886" lon="3.92789">
        <ele>612.98</ele>
        <time>2026-03-21T15:59:19Z</time>
      </trkpt>
      <trkpt lat="44.45877" lon="3.92813">
        <ele>612.98</ele>
        <time>2026-03-21T15:59:35Z</time>
      </trkpt>
      <trkpt lat="44.45875" lon="3.92815">
        <ele>612.98</ele>
        <time>2026-03-21T15:59:37Z</time>
      </trkpt>
      <trkpt lat="44.45865" lon="3.92816">
        <ele>613.46</ele>
        <time>2026-03-21T15:59:46Z</time>
      </trkpt>
      <trkpt lat="44.45848" lon="3.92835">
        <ele>614.9</ele>
        <time>2026-03-21T16:00:05Z</time>
      </trkpt>
      <trkpt lat="44.45846" lon="3.92836">
        <ele>614.9</ele>
        <time>2026-03-21T16:00:07Z</time>
      </trkpt>
      <trkpt lat="44.45832" lon="3.92829">
        <ele>616.34</ele>
        <time>2026-03-21T16:00:22Z</time>
      </trkpt>
      <trkpt lat="44.45828" lon="3.92826">
        <ele>616.82</ele>
        <time>2026-03-21T16:00:26Z</time>
      </trkpt>
      <trkpt lat="44.45809" lon="3.92823">
        <ele>616.82</ele>
        <time>2026-03-21T16:00:43Z</time>
      </trkpt>
      <trkpt lat="44.45805" lon="3.92833">
        <ele>616.82</ele>
        <time>2026-03-21T16:01:00Z</time>
      </trkpt>
      <trkpt lat="44.45803" lon="3.92833">
        <ele>616.82</ele>
        <time>2026-03-21T16:01:02Z</time>
      </trkpt>
      <trkpt lat="44.458" lon="3.92836">
        <ele>616.82</ele>
        <time>2026-03-21T16:01:06Z</time>
      </trkpt>
      <trkpt lat="44.45789" lon="3.92857">
        <ele>616.82</ele>
        <time>2026-03-21T16:01:24Z</time>
      </trkpt>
      <trkpt lat="44.45787" lon="3.92861">
        <ele>616.82</ele>
        <time>2026-03-21T16:01:28Z</time>
      </trkpt>
      <trkpt lat="44.45782" lon="3.9287">
        <ele>615.86</ele>
        <time>2026-03-21T16:01:35Z</time>
      </trkpt>
      <trkpt lat="44.45777" lon="3.92875">
        <ele>615.38</ele>
        <time>2026-03-21T16:01:41Z</time>
      </trkpt>
      <trkpt lat="44.4576" lon="3.92889">
        <ele>614.42</ele>
        <time>2026-03-21T16:01:59Z</time>
      </trkpt>
      <trkpt lat="44.45751" lon="3.9291">
        <ele>614.42</ele>
        <time>2026-03-21T16:02:15Z</time>
      </trkpt>
      <trkpt lat="44.45735" lon="3.92926">
        <ele>615.38</ele>
        <time>2026-03-21T16:02:32Z</time>
      </trkpt>
      <trkpt lat="44.45716" lon="3.92935">
        <ele>616.34</ele>
        <time>2026-03-21T16:02:50Z</time>
      </trkpt>
      <trkpt lat="44.45702" lon="3.92932">
        <ele>614.9</ele>
        <time>2026-03-21T16:03:03Z</time>
      </trkpt>
      <trkpt lat="44.45684" lon="3.92933">
        <ele>614.9</ele>
        <time>2026-03-21T16:03:21Z</time>
      </trkpt>
      <trkpt lat="44.45665" lon="3.92935">
        <ele>614.42</ele>
        <time>2026-03-21T16:03:37Z</time>
      </trkpt>
      <trkpt lat="44.45643" lon="3.9293">
        <ele>614.42</ele>
        <time>2026-03-21T16:03:54Z</time>
      </trkpt>
      <trkpt lat="44.45628" lon="3.92938">
        <ele>614.42</ele>
        <time>2026-03-21T16:04:09Z</time>
      </trkpt>
      <trkpt lat="44.45614" lon="3.92955">
        <ele>614.42</ele>
        <time>2026-03-21T16:04:27Z</time>
      </trkpt>
      <trkpt lat="44.45603" lon="3.92977">
        <ele>614.42</ele>
        <time>2026-03-21T16:04:44Z</time>
      </trkpt>
      <trkpt lat="44.45591" lon="3.93001">
        <ele>614.42</ele>
        <time>2026-03-21T16:05:02Z</time>
      </trkpt>
      <trkpt lat="44.45588" lon="3.93007">
        <ele>615.86</ele>
        <time>2026-03-21T16:05:07Z</time>
      </trkpt>
      <trkpt lat="44.45583" lon="3.93029">
        <ele>617.3</ele>
        <time>2026-03-21T16:05:24Z</time>
      </trkpt>
      <trkpt lat="44.45571" lon="3.93049">
        <ele>618.26</ele>
        <time>2026-03-21T16:05:40Z</time>
      </trkpt>
      <trkpt lat="44.45562" lon="3.93064">
        <ele>619.23</ele>
        <time>2026-03-21T16:05:54Z</time>
      </trkpt>
      <trkpt lat="44.4555" lon="3.93084">
        <ele>621.15</ele>
        <time>2026-03-21T16:06:11Z</time>
      </trkpt>
      <trkpt lat="44.45538" lon="3.93107">
        <ele>622.11</ele>
        <time>2026-03-21T16:06:29Z</time>
      </trkpt>
      <trkpt lat="44.45528" lon="3.93135">
        <ele>622.59</ele>
        <time>2026-03-21T16:06:50Z</time>
      </trkpt>
      <trkpt lat="44.45521" lon="3.93162">
        <ele>621.15</ele>
        <time>2026-03-21T16:07:09Z</time>
      </trkpt>
      <trkpt lat="44.45516" lon="3.93165">
        <ele>620.67</ele>
        <time>2026-03-21T16:07:22Z</time>
      </trkpt>
      <trkpt lat="44.45517" lon="3.93165">
        <ele>620.19</ele>
        <time>2026-03-21T16:07:37Z</time>
      </trkpt>
      <trkpt lat="44.45514" lon="3.93165">
        <ele>620.19</ele>
        <time>2026-03-21T16:08:15Z</time>
      </trkpt>
      <trkpt lat="44.4551" lon="3.93162">
        <ele>620.19</ele>
        <time>2026-03-21T16:08:48Z</time>
      </trkpt>
      <trkpt lat="44.45508" lon="3.93165">
        <ele>623.07</ele>
        <time>2026-03-21T16:09:22Z</time>
      </trkpt>
      <trkpt lat="44.45509" lon="3.93165">
        <ele>621.63</ele>
        <time>2026-03-21T16:09:23Z</time>
      </trkpt>
      <trkpt lat="44.4551" lon="3.93165">
        <ele>621.63</ele>
        <time>2026-03-21T16:09:29Z</time>
        <extensions>
          <visugpx:TrkExtension xmlns:visugpx="https://www.visugpx.com/editgpx/">
            <visugpx:node>1</visugpx:node>
            </visugpx:TrkExtension>
        </extensions>
      </trkpt>
    </trkseg>
  </trk>
</gpx>